sensor_id;sensor_type;location;lat;lon;timestamp;P1;durP1;ratioP1;P2;durP2;ratioP2
75429;SDS011;64127;51.488;5.462;2023-01-28T00:00:01;8.87;;;7.97;;
75429;SDS011;64127;51.488;5.462;2023-01-28T00:02:37;8.50;;;7.80;;
75429;SDS011;64127;51.488;5.462;2023-01-28T00:05:09;9.40;;;8.60;;
75429;SDS011;64127;51.488;5.462;2023-01-28T00:07:41;9.17;;;8.37;;
75429;SDS011;64127;51.488;5.462;2023-01-28T00:10:13;9.50;;;8.60;;
75429;SDS011;64127;51.488;5.462;2023-01-28T00:12:45;10.23;;;9.30;;
75429;SDS011;64127;51.488;5.462;2023-01-28T00:15:17;9.50;;;8.60;;
75429;SDS011;64127;51.488;5.462;2023-01-28T00:17:49;9.67;;;8.77;;
75429;SDS011;64127;51.488;5.462;2023-01-28T00:20:22;9.97;;;9.00;;
75429;SDS011;64127;51.488;5.462;2023-01-28T00:22:54;9.43;;;8.53;;
75429;SDS011;64127;51.488;5.462;2023-01-28T00:25:26;10.13;;;9.13;;
75429;SDS011;64127;51.488;5.462;2023-01-28T00:27:58;9.23;;;8.43;;
75429;SDS011;64127;51.488;5.462;2023-01-28T00:30:30;10.37;;;9.37;;
75429;SDS011;64127;51.488;5.462;2023-01-28T00:33:02;10.10;;;9.20;;
75429;SDS011;64127;51.488;5.462;2023-01-28T00:35:35;10.10;;;9.10;;
75429;SDS011;64127;51.488;5.462;2023-01-28T00:38:07;10.50;;;9.50;;
75429;SDS011;64127;51.488;5.462;2023-01-28T00:40:40;10.13;;;9.13;;
75429;SDS011;64127;51.488;5.462;2023-01-28T00:43:12;10.00;;;9.00;;
75429;SDS011;64127;51.488;5.462;2023-01-28T00:45:44;10.53;;;9.53;;
75429;SDS011;64127;51.488;5.462;2023-01-28T00:48:20;10.13;;;9.20;;
75429;SDS011;64127;51.488;5.462;2023-01-28T00:50:53;9.93;;;9.03;;
75429;SDS011;64127;51.488;5.462;2023-01-28T00:53:25;9.83;;;8.93;;
75429;SDS011;64127;51.488;5.462;2023-01-28T00:55:57;9.47;;;8.63;;
75429;SDS011;64127;51.488;5.462;2023-01-28T00:58:29;10.30;;;9.30;;
75429;SDS011;64127;51.488;5.462;2023-01-28T01:01:08;10.13;;;9.13;;
75429;SDS011;64127;51.488;5.462;2023-01-28T01:03:50;10.30;;;9.30;;
75429;SDS011;64127;51.488;5.462;2023-01-28T01:06:36;9.73;;;8.83;;
75429;SDS011;64127;51.488;5.462;2023-01-28T01:09:10;9.97;;;8.77;;
75429;SDS011;64127;51.488;5.462;2023-01-28T01:11:43;9.97;;;9.07;;
75429;SDS011;64127;51.488;5.462;2023-01-28T01:14:15;10.20;;;9.30;;
75429;SDS011;64127;51.488;5.462;2023-01-28T01:16:47;9.83;;;8.83;;
75429;SDS011;64127;51.488;5.462;2023-01-28T01:19:19;9.60;;;8.70;;
75429;SDS011;64127;51.488;5.462;2023-01-28T01:21:51;10.47;;;9.50;;
75429;SDS011;64127;51.488;5.462;2023-01-28T01:24:23;10.50;;;9.50;;
75429;SDS011;64127;51.488;5.462;2023-01-28T01:26:55;10.30;;;9.30;;
75429;SDS011;64127;51.488;5.462;2023-01-28T01:29:27;10.47;;;9.47;;
75429;SDS011;64127;51.488;5.462;2023-01-28T01:31:59;9.83;;;8.93;;
75429;SDS011;64127;51.488;5.462;2023-01-28T01:34:31;9.77;;;8.87;;
75429;SDS011;64127;51.488;5.462;2023-01-28T01:37:03;10.73;;;9.73;;
75429;SDS011;64127;51.488;5.462;2023-01-28T01:39:38;11.77;;;9.87;;
75429;SDS011;64127;51.488;5.462;2023-01-28T01:42:11;10.17;;;9.27;;
75429;SDS011;64127;51.488;5.462;2023-01-28T01:44:55;9.40;;;8.50;;
75429;SDS011;64127;51.488;5.462;2023-01-28T01:48:38;10.73;;;9.70;;
75429;SDS011;64127;51.488;5.462;2023-01-28T01:51:13;9.90;;;8.97;;
75429;SDS011;64127;51.488;5.462;2023-01-28T01:53:52;10.07;;;9.17;;
75429;SDS011;64127;51.488;5.462;2023-01-28T01:56:29;9.83;;;8.93;;
75429;SDS011;64127;51.488;5.462;2023-01-28T01:59:10;10.23;;;8.93;;
75429;SDS011;64127;51.488;5.462;2023-01-28T02:01:48;9.80;;;8.90;;
75429;SDS011;64127;51.488;5.462;2023-01-28T02:04:28;10.50;;;9.50;;
75429;SDS011;64127;51.488;5.462;2023-01-28T02:07:11;10.23;;;9.23;;
75429;SDS011;64127;51.488;5.462;2023-01-28T02:09:46;10.10;;;9.20;;
75429;SDS011;64127;51.488;5.462;2023-01-28T02:12:20;10.53;;;9.53;;
75429;SDS011;64127;51.488;5.462;2023-01-28T02:15:06;9.87;;;8.97;;
75429;SDS011;64127;51.488;5.462;2023-01-28T02:17:51;10.33;;;9.33;;
75429;SDS011;64127;51.488;5.462;2023-01-28T02:32:35;10.83;;;9.80;;
75429;SDS011;64127;51.488;5.462;2023-01-28T02:35:36;11.27;;;10.17;;
75429;SDS011;64127;51.488;5.462;2023-01-28T02:38:30;11.00;;;9.90;;
75429;SDS011;64127;51.488;5.462;2023-01-28T02:41:17;10.97;;;9.87;;
75429;SDS011;64127;51.488;5.462;2023-01-28T02:44:00;11.47;;;10.37;;
75429;SDS011;64127;51.488;5.462;2023-01-28T02:46:34;11.20;;;10.13;;
75429;SDS011;64127;51.488;5.462;2023-01-28T02:55:54;11.27;;;10.17;;
75429;SDS011;64127;51.488;5.462;2023-01-28T03:05:02;10.00;;;9.00;;
75429;SDS011;64127;51.488;5.462;2023-01-28T03:07:52;10.70;;;9.70;;
75429;SDS011;64127;51.488;5.462;2023-01-28T03:10:25;10.90;;;9.80;;
75429;SDS011;64127;51.488;5.462;2023-01-28T03:12:59;10.60;;;9.50;;
75429;SDS011;64127;51.488;5.462;2023-01-28T03:15:49;11.23;;;10.13;;
75429;SDS011;64127;51.488;5.462;2023-01-28T03:18:43;10.80;;;9.80;;
75429;SDS011;64127;51.488;5.462;2023-01-28T03:21:41;11.00;;;9.90;;
75429;SDS011;64127;51.488;5.462;2023-01-28T03:24:37;11.10;;;10.00;;
75429;SDS011;64127;51.488;5.462;2023-01-28T03:27:46;10.67;;;9.67;;
75429;SDS011;64127;51.488;5.462;2023-01-28T03:30:44;10.97;;;9.93;;
75429;SDS011;64127;51.488;5.462;2023-01-28T03:33:40;11.30;;;10.20;;
75429;SDS011;64127;51.488;5.462;2023-01-28T03:36:33;10.77;;;9.77;;
75429;SDS011;64127;51.488;5.462;2023-01-28T03:39:22;11.17;;;9.97;;
75429;SDS011;64127;51.488;5.462;2023-01-28T03:42:05;11.27;;;10.17;;
75429;SDS011;64127;51.488;5.462;2023-01-28T03:44:40;11.20;;;10.10;;
75429;SDS011;64127;51.488;5.462;2023-01-28T03:47:23;11.37;;;10.27;;
75429;SDS011;64127;51.488;5.462;2023-01-28T03:49:57;10.53;;;9.53;;
75429;SDS011;64127;51.488;5.462;2023-01-28T03:52:31;11.37;;;10.27;;
75429;SDS011;64127;51.488;5.462;2023-01-28T03:55:04;10.60;;;9.60;;
75429;SDS011;64127;51.488;5.462;2023-01-28T03:57:44;10.23;;;9.23;;
75429;SDS011;64127;51.488;5.462;2023-01-28T04:00:16;9.90;;;9.00;;
75429;SDS011;64127;51.488;5.462;2023-01-28T04:02:50;10.33;;;9.33;;
75429;SDS011;64127;51.488;5.462;2023-01-28T04:05:22;10.63;;;9.63;;
75429;SDS011;64127;51.488;5.462;2023-01-28T04:07:55;10.33;;;9.33;;
75429;SDS011;64127;51.488;5.462;2023-01-28T04:10:27;10.97;;;9.87;;
75429;SDS011;64127;51.488;5.462;2023-01-28T04:12:59;10.10;;;8.87;;
75429;SDS011;64127;51.488;5.462;2023-01-28T04:15:31;10.10;;;9.10;;
75429;SDS011;64127;51.488;5.462;2023-01-28T04:18:03;10.27;;;9.27;;
75429;SDS011;64127;51.488;5.462;2023-01-28T04:20:35;9.77;;;8.77;;
75429;SDS011;64127;51.488;5.462;2023-01-28T04:23:08;10.37;;;9.37;;
75429;SDS011;64127;51.488;5.462;2023-01-28T04:25:40;10.40;;;9.30;;
75429;SDS011;64127;51.488;5.462;2023-01-28T04:28:12;9.73;;;8.83;;
75429;SDS011;64127;51.488;5.462;2023-01-28T04:30:44;8.70;;;7.90;;
75429;SDS011;64127;51.488;5.462;2023-01-28T04:33:16;9.67;;;8.67;;
75429;SDS011;64127;51.488;5.462;2023-01-28T04:35:48;8.70;;;7.90;;
75429;SDS011;64127;51.488;5.462;2023-01-28T04:38:20;9.73;;;8.73;;
75429;SDS011;64127;51.488;5.462;2023-01-28T04:40:52;9.23;;;8.43;;
75429;SDS011;64127;51.488;5.462;2023-01-28T04:43:25;9.33;;;8.43;;
75429;SDS011;64127;51.488;5.462;2023-01-28T04:45:57;9.50;;;8.70;;
75429;SDS011;64127;51.488;5.462;2023-01-28T04:48:29;9.87;;;8.87;;
75429;SDS011;64127;51.488;5.462;2023-01-28T04:51:02;9.03;;;8.23;;
75429;SDS011;64127;51.488;5.462;2023-01-28T04:53:35;9.60;;;8.70;;
75429;SDS011;64127;51.488;5.462;2023-01-28T04:56:07;9.97;;;9.07;;
75429;SDS011;64127;51.488;5.462;2023-01-28T04:58:39;10.80;;;9.80;;
75429;SDS011;64127;51.488;5.462;2023-01-28T05:01:11;10.27;;;9.37;;
75429;SDS011;64127;51.488;5.462;2023-01-28T05:03:43;9.67;;;8.77;;
75429;SDS011;64127;51.488;5.462;2023-01-28T05:06:15;10.03;;;9.13;;
75429;SDS011;64127;51.488;5.462;2023-01-28T05:08:47;9.60;;;8.80;;
75429;SDS011;64127;51.488;5.462;2023-01-28T05:11:19;10.40;;;9.40;;
75429;SDS011;64127;51.488;5.462;2023-01-28T05:13:53;9.77;;;8.87;;
75429;SDS011;64127;51.488;5.462;2023-01-28T05:16:25;9.87;;;8.90;;
75429;SDS011;64127;51.488;5.462;2023-01-28T05:18:57;10.10;;;9.10;;
75429;SDS011;64127;51.488;5.462;2023-01-28T05:21:29;9.80;;;8.90;;
75429;SDS011;64127;51.488;5.462;2023-01-28T05:24:01;9.53;;;8.63;;
75429;SDS011;64127;51.488;5.462;2023-01-28T05:26:33;11.00;;;9.93;;
75429;SDS011;64127;51.488;5.462;2023-01-28T05:29:05;10.50;;;9.50;;
75429;SDS011;64127;51.488;5.462;2023-01-28T05:31:37;10.40;;;9.40;;
75429;SDS011;64127;51.488;5.462;2023-01-28T05:34:09;9.97;;;9.07;;
75429;SDS011;64127;51.488;5.462;2023-01-28T05:36:41;11.03;;;10.03;;
75429;SDS011;64127;51.488;5.462;2023-01-28T05:39:13;10.83;;;9.83;;
75429;SDS011;64127;51.488;5.462;2023-01-28T05:41:45;10.53;;;9.53;;
75429;SDS011;64127;51.488;5.462;2023-01-28T05:44:17;10.70;;;9.70;;
75429;SDS011;64127;51.488;5.462;2023-01-28T05:46:49;11.07;;;9.50;;
75429;SDS011;64127;51.488;5.462;2023-01-28T05:49:21;10.83;;;9.83;;
75429;SDS011;64127;51.488;5.462;2023-01-28T05:51:53;10.97;;;9.93;;
75429;SDS011;64127;51.488;5.462;2023-01-28T05:54:25;11.57;;;10.47;;
75429;SDS011;64127;51.488;5.462;2023-01-28T05:56:58;11.00;;;9.90;;
75429;SDS011;64127;51.488;5.462;2023-01-28T05:59:30;10.93;;;9.83;;
75429;SDS011;64127;51.488;5.462;2023-01-28T06:02:02;11.23;;;10.13;;
75429;SDS011;64127;51.488;5.462;2023-01-28T06:04:34;11.07;;;10.07;;
75429;SDS011;64127;51.488;5.462;2023-01-28T06:07:06;11.00;;;10.00;;
75429;SDS011;64127;51.488;5.462;2023-01-28T06:09:38;10.87;;;9.87;;
75429;SDS011;64127;51.488;5.462;2023-01-28T06:12:10;10.23;;;9.33;;
75429;SDS011;64127;51.488;5.462;2023-01-28T06:14:42;10.60;;;9.60;;
75429;SDS011;64127;51.488;5.462;2023-01-28T06:17:14;10.27;;;9.27;;
75429;SDS011;64127;51.488;5.462;2023-01-28T06:19:46;10.90;;;9.90;;
75429;SDS011;64127;51.488;5.462;2023-01-28T06:22:18;9.73;;;8.83;;
75429;SDS011;64127;51.488;5.462;2023-01-28T06:24:50;9.77;;;8.87;;
75429;SDS011;64127;51.488;5.462;2023-01-28T06:27:22;9.33;;;8.53;;
75429;SDS011;64127;51.488;5.462;2023-01-28T06:29:54;11.10;;;10.00;;
75429;SDS011;64127;51.488;5.462;2023-01-28T06:32:26;9.90;;;9.00;;
75429;SDS011;64127;51.488;5.462;2023-01-28T06:34:58;9.97;;;9.07;;
75429;SDS011;64127;51.488;5.462;2023-01-28T06:37:31;9.63;;;8.73;;
75429;SDS011;64127;51.488;5.462;2023-01-28T06:40:03;10.33;;;9.40;;
75429;SDS011;64127;51.488;5.462;2023-01-28T06:42:35;10.33;;;9.27;;
75429;SDS011;64127;51.488;5.462;2023-01-28T06:45:07;10.57;;;9.57;;
75429;SDS011;64127;51.488;5.462;2023-01-28T06:47:40;9.37;;;8.57;;
75429;SDS011;64127;51.488;5.462;2023-01-28T06:50:11;9.40;;;8.57;;
75429;SDS011;64127;51.488;5.462;2023-01-28T06:52:44;9.17;;;8.37;;
75429;SDS011;64127;51.488;5.462;2023-01-28T06:55:17;9.90;;;8.90;;
75429;SDS011;64127;51.488;5.462;2023-01-28T06:57:49;9.17;;;8.37;;
75429;SDS011;64127;51.488;5.462;2023-01-28T07:00:21;9.40;;;8.50;;
75429;SDS011;64127;51.488;5.462;2023-01-28T07:02:56;9.07;;;8.27;;
75429;SDS011;64127;51.488;5.462;2023-01-28T07:05:28;9.23;;;8.43;;
75429;SDS011;64127;51.488;5.462;2023-01-28T07:08:00;8.60;;;7.80;;
75429;SDS011;64127;51.488;5.462;2023-01-28T07:10:33;9.37;;;8.47;;
75429;SDS011;64127;51.488;5.462;2023-01-28T07:13:05;9.50;;;8.60;;
75429;SDS011;64127;51.488;5.462;2023-01-28T07:15:37;9.93;;;9.03;;
75429;SDS011;64127;51.488;5.462;2023-01-28T07:18:09;9.70;;;8.77;;
75429;SDS011;64127;51.488;5.462;2023-01-28T07:20:41;9.97;;;8.97;;
75429;SDS011;64127;51.488;5.462;2023-01-28T07:23:13;10.43;;;9.43;;
75429;SDS011;64127;51.488;5.462;2023-01-28T07:25:45;9.97;;;9.07;;
75429;SDS011;64127;51.488;5.462;2023-01-28T07:28:17;13.00;;;11.90;;
75429;SDS011;64127;51.488;5.462;2023-01-28T07:30:51;10.73;;;9.73;;
75429;SDS011;64127;51.488;5.462;2023-01-28T07:33:24;11.07;;;10.07;;
75429;SDS011;64127;51.488;5.462;2023-01-28T07:35:56;10.13;;;9.23;;
75429;SDS011;64127;51.488;5.462;2023-01-28T07:38:28;9.77;;;8.77;;
75429;SDS011;64127;51.488;5.462;2023-01-28T07:41:00;9.80;;;8.90;;
75429;SDS011;64127;51.488;5.462;2023-01-28T07:43:32;10.27;;;9.27;;
75429;SDS011;64127;51.488;5.462;2023-01-28T07:46:04;9.97;;;9.07;;
75429;SDS011;64127;51.488;5.462;2023-01-28T07:48:36;9.70;;;8.80;;
75429;SDS011;64127;51.488;5.462;2023-01-28T07:51:08;9.93;;;8.90;;
75429;SDS011;64127;51.488;5.462;2023-01-28T07:53:40;10.37;;;9.00;;
75429;SDS011;64127;51.488;5.462;2023-01-28T07:56:12;10.13;;;9.17;;
75429;SDS011;64127;51.488;5.462;2023-01-28T07:58:44;9.90;;;8.80;;
75429;SDS011;64127;51.488;5.462;2023-01-28T08:01:15;10.57;;;9.57;;
75429;SDS011;64127;51.488;5.462;2023-01-28T08:03:48;10.60;;;9.60;;
75429;SDS011;64127;51.488;5.462;2023-01-28T08:06:20;9.33;;;8.50;;
75429;SDS011;64127;51.488;5.462;2023-01-28T08:08:52;9.67;;;8.77;;
75429;SDS011;64127;51.488;5.462;2023-01-28T08:11:24;9.60;;;8.60;;
75429;SDS011;64127;51.488;5.462;2023-01-28T08:13:56;9.87;;;8.97;;
75429;SDS011;64127;51.488;5.462;2023-01-28T08:16:29;9.57;;;8.60;;
75429;SDS011;64127;51.488;5.462;2023-01-28T08:19:01;9.60;;;8.70;;
75429;SDS011;64127;51.488;5.462;2023-01-28T08:21:33;9.77;;;8.87;;
75429;SDS011;64127;51.488;5.462;2023-01-28T08:24:05;9.60;;;8.60;;
75429;SDS011;64127;51.488;5.462;2023-01-28T08:26:37;10.77;;;9.43;;
75429;SDS011;64127;51.488;5.462;2023-01-28T08:29:09;10.17;;;9.17;;
75429;SDS011;64127;51.488;5.462;2023-01-28T08:31:41;10.87;;;9.73;;
75429;SDS011;64127;51.488;5.462;2023-01-28T08:34:13;9.93;;;9.03;;
75429;SDS011;64127;51.488;5.462;2023-01-28T08:36:45;9.73;;;8.83;;
75429;SDS011;64127;51.488;5.462;2023-01-28T08:39:17;9.30;;;8.37;;
75429;SDS011;64127;51.488;5.462;2023-01-28T08:41:49;10.37;;;9.37;;
75429;SDS011;64127;51.488;5.462;2023-01-28T08:44:21;9.83;;;8.93;;
75429;SDS011;64127;51.488;5.462;2023-01-28T08:46:53;10.27;;;9.27;;
75429;SDS011;64127;51.488;5.462;2023-01-28T08:49:25;10.60;;;9.60;;
75429;SDS011;64127;51.488;5.462;2023-01-28T08:51:57;10.40;;;9.40;;
75429;SDS011;64127;51.488;5.462;2023-01-28T08:54:29;10.17;;;9.27;;
75429;SDS011;64127;51.488;5.462;2023-01-28T08:57:01;11.03;;;10.03;;
75429;SDS011;64127;51.488;5.462;2023-01-28T08:59:34;10.50;;;9.50;;
75429;SDS011;64127;51.488;5.462;2023-01-28T09:02:06;10.50;;;9.50;;
75429;SDS011;64127;51.488;5.462;2023-01-28T09:04:59;10.00;;;9.00;;
75429;SDS011;64127;51.488;5.462;2023-01-28T09:07:32;10.40;;;9.40;;
75429;SDS011;64127;51.488;5.462;2023-01-28T09:10:05;10.40;;;9.40;;
75429;SDS011;64127;51.488;5.462;2023-01-28T09:12:39;10.50;;;9.50;;
75429;SDS011;64127;51.488;5.462;2023-01-28T09:15:13;12.23;;;11.13;;
75429;SDS011;64127;51.488;5.462;2023-01-28T09:17:45;10.63;;;9.63;;
75429;SDS011;64127;51.488;5.462;2023-01-28T09:20:17;9.53;;;8.63;;
75429;SDS011;64127;51.488;5.462;2023-01-28T09:22:49;10.23;;;9.23;;
75429;SDS011;64127;51.488;5.462;2023-01-28T09:25:21;9.90;;;8.97;;
75429;SDS011;64127;51.488;5.462;2023-01-28T09:27:53;10.10;;;9.10;;
75429;SDS011;64127;51.488;5.462;2023-01-28T09:30:25;12.07;;;10.87;;
75429;SDS011;64127;51.488;5.462;2023-01-28T09:32:58;10.43;;;9.47;;
75429;SDS011;64127;51.488;5.462;2023-01-28T09:35:30;10.70;;;9.70;;
75429;SDS011;64127;51.488;5.462;2023-01-28T09:38:03;11.20;;;10.20;;
75429;SDS011;64127;51.488;5.462;2023-01-28T09:40:37;11.00;;;10.00;;
75429;SDS011;64127;51.488;5.462;2023-01-28T09:46:05;10.57;;;9.57;;
75429;SDS011;64127;51.488;5.462;2023-01-28T09:48:49;10.50;;;9.40;;
75429;SDS011;64127;51.488;5.462;2023-01-28T09:59:56;10.60;;;9.60;;
75429;SDS011;64127;51.488;5.462;2023-01-28T10:02:36;10.97;;;9.87;;
75429;SDS011;64127;51.488;5.462;2023-01-28T10:12:11;11.93;;;10.73;;
75429;SDS011;64127;51.488;5.462;2023-01-28T10:18:16;12.57;;;11.27;;
75429;SDS011;64127;51.488;5.462;2023-01-28T10:21:38;11.27;;;10.17;;
75429;SDS011;64127;51.488;5.462;2023-01-28T10:24:32;11.07;;;9.97;;
75429;SDS011;64127;51.488;5.462;2023-01-28T10:27:13;10.70;;;9.70;;
75429;SDS011;64127;51.488;5.462;2023-01-28T10:29:52;10.03;;;9.13;;
75429;SDS011;64127;51.488;5.462;2023-01-28T10:32:29;10.50;;;9.50;;
75429;SDS011;64127;51.488;5.462;2023-01-28T10:35:08;10.30;;;9.37;;
75429;SDS011;64127;51.488;5.462;2023-01-28T10:37:42;11.63;;;10.53;;
75429;SDS011;64127;51.488;5.462;2023-01-28T10:40:15;10.40;;;9.43;;
75429;SDS011;64127;51.488;5.462;2023-01-28T10:42:48;10.17;;;9.27;;
75429;SDS011;64127;51.488;5.462;2023-01-28T10:45:22;11.20;;;10.10;;
75429;SDS011;64127;51.488;5.462;2023-01-28T10:48:02;11.10;;;10.10;;
75429;SDS011;64127;51.488;5.462;2023-01-28T10:50:37;10.60;;;9.60;;
75429;SDS011;64127;51.488;5.462;2023-01-28T10:56:10;10.80;;;9.80;;
75429;SDS011;64127;51.488;5.462;2023-01-28T10:59:01;9.47;;;8.57;;
75429;SDS011;64127;51.488;5.462;2023-01-28T11:04:33;10.10;;;9.20;;
75429;SDS011;64127;51.488;5.462;2023-01-28T11:07:17;9.67;;;8.70;;
75429;SDS011;64127;51.488;5.462;2023-01-28T11:09:51;10.27;;;9.17;;
75429;SDS011;64127;51.488;5.462;2023-01-28T11:12:28;9.63;;;8.73;;
75429;SDS011;64127;51.488;5.462;2023-01-28T11:15:03;9.37;;;8.47;;
75429;SDS011;64127;51.488;5.462;2023-01-28T11:17:37;9.73;;;8.83;;
75429;SDS011;64127;51.488;5.462;2023-01-28T11:20:11;9.70;;;8.80;;
75429;SDS011;64127;51.488;5.462;2023-01-28T11:22:52;9.67;;;8.77;;
75429;SDS011;64127;51.488;5.462;2023-01-28T11:28:06;10.27;;;9.27;;
75429;SDS011;64127;51.488;5.462;2023-01-28T11:30:49;10.20;;;9.20;;
75429;SDS011;64127;51.488;5.462;2023-01-28T11:33:31;9.90;;;9.00;;
75429;SDS011;64127;51.488;5.462;2023-01-28T11:36:13;10.00;;;9.10;;
75429;SDS011;64127;51.488;5.462;2023-01-28T11:38:54;10.63;;;9.10;;
75429;SDS011;64127;51.488;5.462;2023-01-28T11:41:34;10.10;;;9.10;;
75429;SDS011;64127;51.488;5.462;2023-01-28T11:47:03;10.30;;;9.30;;
75429;SDS011;64127;51.488;5.462;2023-01-28T12:07:48;8.87;;;8.07;;
75429;SDS011;64127;51.488;5.462;2023-01-28T12:14:22;22.40;;;20.10;;
75429;SDS011;64127;51.488;5.462;2023-01-28T12:17:13;10.77;;;9.77;;
75429;SDS011;64127;51.488;5.462;2023-01-28T12:20:02;9.60;;;8.70;;
75429;SDS011;64127;51.488;5.462;2023-01-28T12:31:41;9.50;;;8.60;;
75429;SDS011;64127;51.488;5.462;2023-01-28T12:49:42;9.30;;;8.50;;
75429;SDS011;64127;51.488;5.462;2023-01-28T12:52:31;9.60;;;8.70;;
75429;SDS011;64127;51.488;5.462;2023-01-28T12:57:51;9.03;;;8.23;;
75429;SDS011;64127;51.488;5.462;2023-01-28T13:00:28;9.50;;;8.60;;
75429;SDS011;64127;51.488;5.462;2023-01-28T13:06:32;7.57;;;6.87;;
75429;SDS011;64127;51.488;5.462;2023-01-28T13:09:25;7.57;;;6.97;;
75429;SDS011;64127;51.488;5.462;2023-01-28T13:12:00;7.67;;;7.00;;
75429;SDS011;64127;51.488;5.462;2023-01-28T13:14:34;7.87;;;7.07;;
75429;SDS011;64127;51.488;5.462;2023-01-28T13:17:08;7.33;;;6.63;;
75429;SDS011;64127;51.488;5.462;2023-01-28T13:19:57;6.73;;;6.13;;
75429;SDS011;64127;51.488;5.462;2023-01-28T13:22:34;6.83;;;6.23;;
75429;SDS011;64127;51.488;5.462;2023-01-28T13:25:24;7.73;;;7.07;;
75429;SDS011;64127;51.488;5.462;2023-01-28T13:28:01;7.43;;;6.80;;
75429;SDS011;64127;51.488;5.462;2023-01-28T13:30:46;7.53;;;6.83;;
75429;SDS011;64127;51.488;5.462;2023-01-28T13:36:28;7.23;;;6.63;;
75429;SDS011;64127;51.488;5.462;2023-01-28T13:39:16;6.53;;;5.93;;
75429;SDS011;64127;51.488;5.462;2023-01-28T13:41:52;7.03;;;6.43;;
75429;SDS011;64127;51.488;5.462;2023-01-28T13:44:37;7.03;;;6.43;;
75429;SDS011;64127;51.488;5.462;2023-01-28T13:49:48;7.57;;;6.87;;
75429;SDS011;64127;51.488;5.462;2023-01-28T13:52:33;7.33;;;6.73;;
75429;SDS011;64127;51.488;5.462;2023-01-28T13:55:19;7.67;;;6.97;;
75429;SDS011;64127;51.488;5.462;2023-01-28T13:58:20;7.40;;;6.60;;
75429;SDS011;64127;51.488;5.462;2023-01-28T14:01:11;7.40;;;6.70;;
75429;SDS011;64127;51.488;5.462;2023-01-28T14:12:54;6.70;;;6.10;;
75429;SDS011;64127;51.488;5.462;2023-01-28T14:18:56;6.47;;;5.97;;
75429;SDS011;64127;51.488;5.462;2023-01-28T14:21:33;7.30;;;6.70;;
75429;SDS011;64127;51.488;5.462;2023-01-28T14:24:09;7.27;;;6.67;;
75429;SDS011;64127;51.488;5.462;2023-01-28T14:26:51;7.37;;;6.77;;
75429;SDS011;64127;51.488;5.462;2023-01-28T14:32:33;7.20;;;6.60;;
75429;SDS011;64127;51.488;5.462;2023-01-28T14:35:07;8.30;;;7.60;;
75429;SDS011;64127;51.488;5.462;2023-01-28T14:37:40;7.60;;;7.00;;
75429;SDS011;64127;51.488;5.462;2023-01-28T14:40:14;7.43;;;6.83;;
75429;SDS011;64127;51.488;5.462;2023-01-28T14:42:53;7.07;;;6.47;;
75429;SDS011;64127;51.488;5.462;2023-01-28T14:48:20;7.43;;;6.73;;
75429;SDS011;64127;51.488;5.462;2023-01-28T14:51:19;6.67;;;6.07;;
75429;SDS011;64127;51.488;5.462;2023-01-28T15:00:23;7.50;;;6.23;;
75429;SDS011;64127;51.488;5.462;2023-01-28T15:02:58;7.20;;;6.57;;
75429;SDS011;64127;51.488;5.462;2023-01-28T15:05:32;6.60;;;6.10;;
75429;SDS011;64127;51.488;5.462;2023-01-28T15:08:04;7.00;;;6.40;;
75429;SDS011;64127;51.488;5.462;2023-01-28T15:10:36;6.93;;;6.33;;
75429;SDS011;64127;51.488;5.462;2023-01-28T15:13:10;7.13;;;6.50;;
75429;SDS011;64127;51.488;5.462;2023-01-28T15:15:58;7.47;;;6.87;;
75429;SDS011;64127;51.488;5.462;2023-01-28T15:18:33;7.87;;;7.17;;
75429;SDS011;64127;51.488;5.462;2023-01-28T15:21:11;6.80;;;6.30;;
75429;SDS011;64127;51.488;5.462;2023-01-28T15:23:43;7.40;;;6.80;;
75429;SDS011;64127;51.488;5.462;2023-01-28T15:26:24;7.63;;;6.93;;
75429;SDS011;64127;51.488;5.462;2023-01-28T15:28:59;7.20;;;6.60;;
75429;SDS011;64127;51.488;5.462;2023-01-28T15:31:33;7.10;;;6.50;;
75429;SDS011;64127;51.488;5.462;2023-01-28T15:34:13;7.10;;;6.50;;
75429;SDS011;64127;51.488;5.462;2023-01-28T15:36:48;7.30;;;6.70;;
75429;SDS011;64127;51.488;5.462;2023-01-28T15:39:21;7.60;;;6.90;;
75429;SDS011;64127;51.488;5.462;2023-01-28T15:41:57;7.30;;;6.63;;
75429;SDS011;64127;51.488;5.462;2023-01-28T15:44:36;7.27;;;6.63;;
75429;SDS011;64127;51.488;5.462;2023-01-28T15:49:57;8.00;;;7.20;;
75429;SDS011;64127;51.488;5.462;2023-01-28T15:52:36;7.30;;;6.63;;
75429;SDS011;64127;51.488;5.462;2023-01-28T15:58:25;6.97;;;6.37;;
75429;SDS011;64127;51.488;5.462;2023-01-28T16:03:40;7.80;;;7.10;;
75429;SDS011;64127;51.488;5.462;2023-01-28T16:06:18;8.27;;;7.13;;
75429;SDS011;64127;51.488;5.462;2023-01-28T16:11:30;7.67;;;6.87;;
75429;SDS011;64127;51.488;5.462;2023-01-28T16:14:15;8.07;;;7.30;;
75429;SDS011;64127;51.488;5.462;2023-01-28T16:16:58;7.63;;;6.83;;
75429;SDS011;64127;51.488;5.462;2023-01-28T16:19:33;8.03;;;7.23;;
75429;SDS011;64127;51.488;5.462;2023-01-28T16:22:18;7.37;;;6.67;;
75429;SDS011;64127;51.488;5.462;2023-01-28T16:25:00;7.83;;;7.13;;
75429;SDS011;64127;51.488;5.462;2023-01-28T16:27:33;8.80;;;7.90;;
75429;SDS011;64127;51.488;5.462;2023-01-28T16:30:05;8.90;;;7.73;;
75429;SDS011;64127;51.488;5.462;2023-01-28T16:32:40;9.43;;;8.43;;
75429;SDS011;64127;51.488;5.462;2023-01-28T16:35:16;9.00;;;8.10;;
75429;SDS011;64127;51.488;5.462;2023-01-28T16:37:54;9.63;;;8.63;;
75429;SDS011;64127;51.488;5.462;2023-01-28T16:40:26;9.87;;;8.97;;
75429;SDS011;64127;51.488;5.462;2023-01-28T16:42:58;10.43;;;9.27;;
75429;SDS011;64127;51.488;5.462;2023-01-28T16:45:30;9.43;;;8.53;;
75429;SDS011;64127;51.488;5.462;2023-01-28T16:48:02;10.25;;;9.25;;
75429;SDS011;64127;51.488;5.462;2023-01-28T16:50:36;9.67;;;8.77;;
75429;SDS011;64127;51.488;5.462;2023-01-28T16:53:18;9.80;;;8.87;;
75429;SDS011;64127;51.488;5.462;2023-01-28T16:55:59;9.37;;;8.47;;
75429;SDS011;64127;51.488;5.462;2023-01-28T16:58:31;9.57;;;8.63;;
75429;SDS011;64127;51.488;5.462;2023-01-28T17:01:03;9.63;;;8.73;;
75429;SDS011;64127;51.488;5.462;2023-01-28T17:03:36;9.47;;;8.57;;
75429;SDS011;64127;51.488;5.462;2023-01-28T17:06:15;11.37;;;10.23;;
75429;SDS011;64127;51.488;5.462;2023-01-28T17:08:50;10.27;;;9.27;;
75429;SDS011;64127;51.488;5.462;2023-01-28T17:11:22;11.10;;;9.77;;
75429;SDS011;64127;51.488;5.462;2023-01-28T17:13:54;10.73;;;9.50;;
75429;SDS011;64127;51.488;5.462;2023-01-28T17:16:26;10.37;;;9.37;;
75429;SDS011;64127;51.488;5.462;2023-01-28T17:18:59;10.03;;;9.03;;
75429;SDS011;64127;51.488;5.462;2023-01-28T17:21:31;11.27;;;10.17;;
75429;SDS011;64127;51.488;5.462;2023-01-28T17:24:03;12.47;;;11.20;;
75429;SDS011;64127;51.488;5.462;2023-01-28T17:26:36;12.33;;;11.13;;
75429;SDS011;64127;51.488;5.462;2023-01-28T17:29:08;13.20;;;11.67;;
75429;SDS011;64127;51.488;5.462;2023-01-28T17:31:40;13.43;;;12.03;;
75429;SDS011;64127;51.488;5.462;2023-01-28T17:34:12;13.30;;;12.00;;
75429;SDS011;64127;51.488;5.462;2023-01-28T17:36:44;12.93;;;11.63;;
75429;SDS011;64127;51.488;5.462;2023-01-28T17:39:16;12.30;;;11.10;;
75429;SDS011;64127;51.488;5.462;2023-01-28T17:41:48;12.47;;;11.17;;
75429;SDS011;64127;51.488;5.462;2023-01-28T17:44:22;10.93;;;9.83;;
75429;SDS011;64127;51.488;5.462;2023-01-28T17:46:54;11.63;;;10.43;;
75429;SDS011;64127;51.488;5.462;2023-01-28T17:49:26;12.07;;;10.87;;
75429;SDS011;64127;51.488;5.462;2023-01-28T17:51:58;11.67;;;10.40;;
75429;SDS011;64127;51.488;5.462;2023-01-28T17:54:30;13.40;;;12.00;;
75429;SDS011;64127;51.488;5.462;2023-01-28T17:57:02;13.43;;;12.03;;
75429;SDS011;64127;51.488;5.462;2023-01-28T17:59:34;15.10;;;13.60;;
75429;SDS011;64127;51.488;5.462;2023-01-28T18:02:08;15.07;;;13.43;;